Time;durP1;ratioP1;P1;durP2;ratioP2;P2;SDS_P1;SDS_P2;PMS_P1;PMS_P2;Temp;Humidity;BMP_temperature;BMP_pressure;BME280_temperature;BME280_humidity;BME280_pressure;Samples;Min_cycle;Max_cycle;Signal;HPM_P1;HPM_P2
2022/10/08 00:01:07;;;;;;;4.93;4.63;;;;;;;7.99;100.00;101288.31;5994225;23;20037;-73
2022/10/08 00:03:34;;;;;;;;;;;;;;;8.39;100.00;101355.88;5988132;23;21666;-73
2022/10/08 00:06:16;;;;;;;4.40;4.20;;;;;;;8.37;100.00;101386.44;5991662;23;19914;-74
2022/10/08 00:08:48;;;;;;;5.25;4.75;;;;;;;7.56;100.00;101240.88;5997606;23;20106;-73
2022/10/08 00:11:18;;;;;;;5.35;4.78;;;;;;;7.24;100.00;101176.59;5989993;23;20019;-73
2022/10/08 00:13:46;;;;;;;4.75;4.43;;;;;;;7.79;100.00;101270.66;5960572;24;20024;-74
2022/10/08 00:16:19;;;;;;;4.43;4.22;;;;;;;8.32;100.00;101350.91;5984738;23;20743;-74
2022/10/08 00:18:46;;;;;;;;;;;;;;;8.31;100.00;101349.19;5981526;23;20080;-73
2022/10/08 00:21:24;;;;;;;4.40;4.20;;;;;;;8.30;100.00;101344.84;5980523;23;19989;-72
2022/10/08 00:23:52;;;;;;;4.70;4.20;;;;;;;7.21;100.00;101165.38;5994000;23;20042;-73
2022/10/08 00:26:22;;;;;;;4.50;4.15;;;;;;;7.07;100.00;101142.31;5975087;23;20081;-73
2022/10/08 00:28:51;;;;;;;7.35;4.35;;;;;;;8.28;100.00;101344.03;5988183;23;20074;-73
2022/10/08 00:31:20;;;;;;;5.03;4.65;;;;;;;8.28;100.00;101333.56;5968055;24;20438;-73
2022/10/08 00:33:55;;;;;;;4.15;3.95;;;;;;;7.81;100.00;101258.41;5990859;23;20016;-73
2022/10/08 00:36:24;;;;;;;4.65;4.45;;;;;;;7.70;100.00;101245.69;5980710;23;20635;-73
2022/10/08 00:38:56;;;;;;;5.10;4.80;;;;;;;8.27;100.00;101327.50;5958868;24;20012;-73
2022/10/08 00:41:24;;;;;;;4.47;4.28;;;;;;;8.23;100.00;101322.44;5956415;23;20035;-73
2022/10/08 00:43:54;;;;;;;4.50;4.30;;;;;;;7.92;100.00;101282.44;5989988;23;20775;-73
2022/10/08 00:46:35;;;;;;;4.78;4.40;;;;;;;8.18;100.00;101325.19;5991653;23;20024;-73
2022/10/08 00:49:10;;;;;;;4.03;3.83;;;;;;;8.21;100.00;101327.69;5930875;24;20024;-73
2022/10/08 00:51:40;;;;;;;5.72;5.03;;;;;;;8.08;100.00;101302.84;5980153;23;20035;-73
2022/10/08 00:54:06;;;;;;;4.07;3.88;;;;;;;8.17;100.00;101323.47;5992897;23;20073;-73
2022/10/08 00:56:36;;;;;;;4.88;4.57;;;;;;;7.87;100.00;101281.72;5976166;23;20027;-73
2022/10/08 00:59:03;;;;;;;4.15;3.95;;;;;;;8.12;100.00;101330.63;5984311;23;20479;-74
2022/10/08 01:01:29;;;;;;;4.07;3.88;;;;;;;7.10;100.00;101153.53;5962199;24;20087;-73
2022/10/08 01:04:00;;;;;;;4.00;3.80;;;;;;;8.06;100.00;101325.56;5965503;23;20163;-73
2022/10/08 01:06:29;;;;;;;4.25;3.95;;;;;;;7.58;100.00;101254.75;5990202;23;20556;-74
2022/10/08 01:09:10;;;;;;;4.93;4.63;;;;;;;6.94;100.00;101145.31;5968970;24;20060;-73
2022/10/08 01:12:12;;;;;;;4.30;4.10;;;;;;;7.95;100.00;101316.31;5970844;23;20497;-73
2022/10/08 01:14:47;;;;;;;4.20;4.00;;;;;;;7.92;100.00;101308.56;5997544;23;20118;-74
2022/10/08 01:17:29;;;;;;;4.53;4.13;;;;;;;7.64;100.00;101300.72;5990569;23;20027;-74
2022/10/08 01:20:11;;;;;;;4.13;3.92;;;;;;;7.83;100.00;101324.53;5982575;23;20078;-74
2022/10/08 01:23:15;;;;;;;4.63;4.32;;;;;;;7.89;100.00;101313.88;5965389;23;20016;-73
2022/10/08 01:26:15;;;;;;;4.28;4.07;;;;;;;7.92;100.00;101312.97;5994684;23;20031;-74
2022/10/08 01:29:12;;;;;;;4.28;4.07;;;;;;;7.95;100.00;101311.06;5999569;23;21727;-74
2022/10/08 01:31:51;;;;;;;4.10;3.90;;;;;;;7.19;100.00;101200.22;5952957;23;20103;-74
2022/10/08 01:34:36;;;;;;;6.57;4.20;;;;;;;7.20;100.00;101182.81;5965179;23;20535;-74
2022/10/08 01:37:05;;;;;;;4.15;3.95;;;;;;;7.98;100.00;101329.28;5944034;24;20058;-74
2022/10/08 01:39:35;;;;;;;4.85;4.53;;;;;;;7.53;100.00;101232.28;5968005;23;20090;-74
2022/10/08 01:42:04;;;;;;;4.60;4.30;;;;;;;7.54;100.00;101228.78;5965729;23;20030;-74
2022/10/08 01:44:33;;;;;;;4.32;4.13;;;;;;;7.37;100.00;101190.13;5944630;24;20043;-74
2022/10/08 01:47:04;;;;;;;4.28;4.07;;;;;;;8.19;100.00;101309.44;5968409;23;20019;-74
2022/10/08 01:49:38;;;;;;;5.10;4.70;;;;;;;8.23;100.00;101312.81;5951237;23;20042;-74
2022/10/08 01:52:12;;;;;;;4.40;4.20;;;;;;;8.12;100.00;101292.25;5975845;23;20078;-74
2022/10/08 01:54:43;;;;;;;4.43;4.22;;;;;;;8.12;100.00;101286.19;5977214;23;20027;-74
2022/10/08 01:57:10;;;;;;;4.65;4.35;;;;;;;7.89;100.00;101227.66;5980142;23;20600;-74
2022/10/08 01:59:46;;;;;;;4.50;4.20;;;;;;;8.41;100.00;101294.81;5963764;23;20032;-73
2022/10/08 02:02:21;;;;;;;4.57;4.38;;;;;;;8.47;100.00;101294.63;5970723;23;20055;-74
2022/10/08 02:04:50;;;;;;;3.80;3.65;;;;;;;7.94;100.00;101204.84;5966778;23;20016;-74
2022/10/08 02:07:19;;;;;;;6.28;5.85;;;;;;;8.48;100.00;101291.09;5972971;23;20037;-74
2022/10/08 02:09:52;;;;;;;4.18;3.97;;;;;;;7.64;100.00;101167.50;5967623;23;20016;-74
2022/10/08 02:12:21;;;;;;;;;;;;;;;8.43;100.00;101295.66;5976534;23;20027;-74
2022/10/08 02:14:54;;;;;;;4.30;4.10;;;;;;;8.32;100.00;101277.69;5973082;23;19922;-74
2022/10/08 02:17:47;;;;;;;4.30;4.10;;;;;;;7.52;100.00;101160.91;5961379;23;20023;-74
2022/10/08 02:20:13;;;;;;;3.75;3.65;;;;;;;8.32;100.00;101290.75;5945263;24;20031;-73
2022/10/08 02:22:54;;;;;;;4.75;4.45;;;;;;;7.70;100.00;101196.03;5963571;23;20617;-74
2022/10/08 02:25:45;;;;;;;4.32;4.03;;;;;;;7.80;100.00;101241.03;5972018;23;20043;-75
2022/10/08 02:28:30;;;;;;;4.75;4.47;;;;;;;7.40;100.00;101158.69;5974037;23;20090;-73
2022/10/08 02:31:09;;;;;;;4.40;4.10;;;;;;;8.17;100.00;101289.47;5977050;23;20047;-73
2022/10/08 02:33:39;;;;;;;4.65;4.45;;;;;;;7.58;100.00;101194.69;5945937;24;20037;-73
2022/10/08 02:36:07;;;;;;;4.13;3.92;;;;;;;7.78;100.00;101235.84;5968980;23;20669;-73
2022/10/08 02:38:39;;;;;;;4.35;4.07;;;;;;;7.56;100.00;101193.03;5953872;23;20036;-73
2022/10/08 02:41:07;;;;;;;4.45;4.25;;;;;;;7.97;100.00;101254.38;5966103;23;20031;-74
2022/10/08 02:43:39;;;;;;;4.38;4.18;;;;;;;7.89;100.00;101253.78;5947456;24;20032;-72
2022/10/08 02:46:16;;;;;;;7.28;4.90;;;;;;;7.57;100.00;101210.38;5973068;23;20612;-72
2022/10/08 02:48:55;;;;;;;5.28;4.97;;;;;;;7.69;100.00;101219.59;5971047;23;20026;-72
2022/10/08 02:51:23;;;;;;;4.50;4.20;;;;;;;7.54;100.00;101194.84;5969115;23;20098;-73
2022/10/08 02:53:49;;;;;;;4.60;4.40;;;;;;;7.80;100.00;101230.56;5934429;24;20102;-73
2022/10/08 02:56:20;;;;;;;4.30;4.10;;;;;;;8.12;100.00;101273.13;5969841;23;20368;-73
2022/10/08 02:58:47;;;;;;;4.38;4.18;;;;;;;6.98;100.00;101081.69;5975587;23;20071;-73
2022/10/08 03:01:29;;;;;;;4.25;4.05;;;;;;;8.01;100.00;101251.69;5949103;24;20085;-74
2022/10/08 03:04:13;;;;;;;4.63;4.38;;;;;;;8.19;100.00;101275.44;5974806;23;20446;-73
2022/10/08 03:06:40;;;;;;;5.65;4.15;;;;;;;8.08;100.00;101256.66;5950915;23;20024;-74
2022/10/08 03:09:10;;;;;;;4.00;3.80;;;;;;;7.74;100.00;101188.97;5947412;24;20012;-73
2022/10/08 03:11:37;;;;;;;4.55;4.25;;;;;;;7.92;100.00;101201.44;5981768;23;20035;-73
2022/10/08 03:14:08;;;;;;;4.30;4.10;;;;;;;8.28;100.00;101274.31;5946126;23;20102;-74
2022/10/08 03:16:38;;;;;;;4.65;4.35;;;;;;;8.01;100.00;101210.72;5965429;23;20052;-74
2022/10/08 03:19:07;;;;;;;4.20;4.00;;;;;;;8.14;100.00;101213.78;5947577;23;20149;-74
2022/10/08 03:21:36;;;;;;;4.38;4.18;;;;;;;8.53;100.00;101258.66;5976112;23;21098;-75
2022/10/08 03:24:02;;;;;;;4.05;3.85;;;;;;;8.10;100.00;101183.44;5973555;23;20038;-75
2022/10/08 03:26:28;;;;;;;4.38;4.13;;;;;;;8.51;100.00;101243.94;5967348;24;20040;-74
2022/10/08 03:28:55;;;;;;;4.90;4.20;;;;;;;7.93;100.00;101144.78;5976769;23;20019;-73
2022/10/08 03:31:21;;;;;;;4.95;4.50;;;;;;;8.77;100.00;101272.63;5975165;23;20023;-74
2022/10/08 03:33:52;;;;;;;4.10;3.90;;;;;;;8.51;100.00;101223.84;5991981;23;20447;-74
2022/10/08 03:36:20;;;;;;;4.22;4.03;;;;;;;8.84;100.00;101275.03;5974541;23;20042;-73
2022/10/08 03:38:47;;;;;;;4.07;3.88;;;;;;;8.66;100.00;101245.13;5937218;24;20021;-73
2022/10/08 03:41:14;;;;;;;9.98;3.92;;;;;;;8.91;100.00;101287.00;5993052;23;20024;-74
2022/10/08 03:43:41;;;;;;;4.35;4.15;;;;;;;8.53;100.00;101229.88;5947076;24;20027;-73
2022/10/08 03:46:08;;;;;;;4.30;4.00;;;;;;;8.17;100.00;101159.59;5992153;23;20018;-73
2022/10/08 03:48:35;;;;;;;4.47;4.18;;;;;;;8.94;100.00;101292.13;5977158;23;20459;-74
2022/10/08 03:51:08;;;;;;;6.13;5.50;;;;;;;9.10;100.00;101298.53;5978240;23;20032;-73
2022/10/08 03:53:37;;;;;;;4.75;4.47;;;;;;;9.17;100.00;101294.75;6003933;23;20081;-74
2022/10/08 03:56:07;;;;;;;4.13;3.92;;;;;;;9.19;100.00;101287.69;5998281;23;20039;-73
2022/10/08 03:58:33;;;;;;;8.70;4.70;;;;;;;9.46;100.00;101307.69;6000845;23;20039;-74
2022/10/08 04:01:02;;;;;;;4.30;4.10;;;;;;;9.70;100.00;101303.28;6000765;23;20524;-73
2022/10/08 04:03:30;;;;;;;4.35;4.15;;;;;;;9.85;100.00;101300.06;5995862;23;20019;-74
2022/10/08 04:05:57;;;;;;;4.82;4.43;;;;;;;9.33;100.00;101197.28;5996881;23;20039;-74
2022/10/08 04:08:24;;;;;;;4.75;4.50;;;;;;;10.13;100.00;101301.56;5996689;23;20018;-73
2022/10/08 04:10:51;;;;;;;5.18;4.93;;;;;;;10.20;100.00;101300.41;5996623;23;20410;-73
2022/10/08 04:13:18;;;;;;;4.30;4.05;;;;;;;10.25;100.00;101295.81;5984301;23;20122;-74
2022/10/08 04:15:49;;;;;;;4.40;4.20;;;;;;;10.33;100.00;101316.53;5998256;23;20086;-73
2022/10/08 04:18:16;;;;;;;4.30;4.10;;;;;;;10.36;100.00;101298.91;5998990;23;20046;-73
2022/10/08 04:20:43;;;;;;;4.60;4.30;;;;;;;10.40;100.00;101312.72;5997396;23;20039;-74
2022/10/08 04:23:10;;;;;;;4.50;4.20;;;;;;;10.42;100.00;101312.66;5976555;23;20039;-73
2022/10/08 04:25:36;;;;;;;5.38;4.97;;;;;;;10.46;100.00;101309.84;5963852;23;20027;-74
2022/10/08 04:28:04;;;;;;;4.85;4.55;;;;;;;10.46;100.00;101314.25;5998827;23;20034;-74
2022/10/08 04:30:31;;;;;;;6.13;5.82;;;;;;;10.47;100.00;101311.56;5992995;23;20030;-73
2022/10/08 04:32:57;;;;;;;4.57;4.28;;;;;;;10.47;100.00;101313.34;5996231;23;20039;-74
2022/10/08 04:35:24;;;;;;;4.68;4.47;;;;;;;10.04;100.00;101246.88;6002421;23;20046;-74
2022/10/08 04:37:50;;;;;;;5.07;4.60;;;;;;;9.21;100.00;101106.94;6002730;23;20019;-73
2022/10/08 04:40:17;;;;;;;4.57;4.32;;;;;;;9.90;100.00;101240.44;5998955;23;20031;-74
2022/10/08 04:42:43;;;;;;;4.38;4.18;;;;;;;10.48;100.00;101315.88;5978741;23;20738;-74
2022/10/08 04:45:10;;;;;;;5.28;4.95;;;;;;;10.24;100.00;101269.66;5988786;23;20034;-73
2022/10/08 04:47:36;;;;;;;7.18;5.75;;;;;;;10.47;100.00;101311.56;6003455;23;20419;-73
2022/10/08 04:50:03;;;;;;;4.75;4.55;;;;;;;10.38;100.00;101307.56;5999436;23;20011;-73
2022/10/08 04:52:30;;;;;;;5.05;4.65;;;;;;;9.31;100.00;101146.72;5999354;23;20038;-74
2022/10/08 04:54:56;;;;;;;4.60;4.40;;;;;;;10.46;100.00;101327.38;5998855;23;20030;-74
2022/10/08 04:57:23;;;;;;;5.05;4.65;;;;;;;9.87;100.00;101223.97;6004036;23;20028;-73
2022/10/08 04:59:49;;;;;;;4.93;4.53;;;;;;;10.29;100.00;101297.41;5994973;23;20027;-74
2022/10/08 05:02:35;;;;;;;4.90;4.60;;;;;;;9.83;100.00;101219.78;5999952;23;20089;-73
2022/10/08 05:05:02;;;;;;;5.30;5.00;;;;;;;10.34;100.00;101311.22;5976452;23;20030;-73
2022/10/08 05:07:28;;;;;;;5.40;5.00;;;;;;;9.91;100.00;101244.75;5996543;23;20023;-73
2022/10/08 05:09:55;;;;;;;6.22;4.90;;;;;;;9.73;100.00;101229.78;6000438;23;20024;-74
2022/10/08 05:12:21;;;;;;;5.03;4.63;;;;;;;10.05;100.00;101273.03;5995129;23;20424;-74
2022/10/08 05:14:47;;;;;;;4.68;4.38;;;;;;;9.93;100.00;101263.91;5994949;23;20023;-72
2022/10/08 05:17:14;;;;;;;4.63;4.35;;;;;;;10.04;100.00;101279.19;5991380;23;20015;-74
2022/10/08 05:19:40;;;;;;;5.70;5.25;;;;;;;9.74;100.00;101236.72;5999932;23;20011;-73
2022/10/08 05:22:06;;;;;;;4.70;4.40;;;;;;;10.33;100.00;101327.88;5999112;23;20097;-73
2022/10/08 05:24:33;;;;;;;4.40;4.20;;;;;;;10.22;100.00;101301.19;5997505;23;20080;-73
2022/10/08 05:26:59;;;;;;;5.07;4.78;;;;;;;10.35;100.00;101315.56;5995956;23;20086;-73
2022/10/08 05:29:29;;;;;;;4.80;4.50;;;;;;;9.68;100.00;101213.38;5984067;23;20074;-73
2022/10/08 05:31:56;;;;;;;4.65;4.43;;;;;;;9.47;100.00;101200.22;5993304;23;20047;-73
2022/10/08 05:34:22;;;;;;;5.50;5.00;;;;;;;10.40;100.00;101325.00;5994273;23;20007;-74
2022/10/08 05:36:48;;;;;;;4.97;4.68;;;;;;;10.42;100.00;101338.91;5996387;23;20474;-73
2022/10/08 05:39:15;;;;;;;5.03;4.72;;;;;;;10.41;100.00;101331.97;6002097;23;20077;-73
2022/10/08 05:41:43;;;;;;;8.60;5.70;;;;;;;9.89;100.00;101258.84;5999279;23;20408;-74
2022/10/08 05:44:10;;;;;;;7.45;5.57;;;;;;;10.37;100.00;101331.22;5976197;23;20114;-74
2022/10/08 05:46:38;;;;;;;5.45;5.10;;;;;;;10.35;100.00;101333.91;5997395;23;20057;-74
2022/10/08 05:49:06;;;;;;;4.63;4.43;;;;;;;10.35;100.00;101344.41;5992916;23;20022;-71
2022/10/08 05:51:33;;;;;;;4.82;4.55;;;;;;;10.38;100.00;101340.78;6002770;23;20034;-70
2022/10/08 05:53:59;;;;;;;5.57;5.18;;;;;;;10.42;100.00;101339.75;5991700;23;20034;-70
2022/10/08 05:56:27;;;;;;;5.22;4.93;;;;;;;10.45;100.00;101346.66;5998814;23;20035;-69
2022/10/08 05:58:54;;;;;;;4.90;4.60;;;;;;;10.45;100.00;101344.88;5997375;23;20015;-70
2022/10/08 06:01:23;;;;;;;4.97;4.68;;;;;;;10.15;100.00;101300.59;5997364;23;20086;-70
2022/10/08 06:03:51;;;;;;;5.70;4.90;;;;;;;10.46;100.00;101354.44;6003303;23;20023;-70
2022/10/08 06:06:19;;;;;;;5.20;4.90;;;;;;;10.47;100.00;101358.81;5998582;23;20076;-70
2022/10/08 06:08:46;;;;;;;5.60;5.28;;;;;;;10.45;100.00;101358.00;5999793;23;20016;-70
2022/10/08 06:11:12;;;;;;;6.28;5.88;;;;;;;10.42;100.00;101360.75;6000031;23;20093;-70
2022/10/08 06:13:39;;;;;;;4.72;4.53;;;;;;;10.44;100.00;101368.56;5998613;23;20115;-70
2022/10/08 06:16:08;;;;;;;5.65;4.75;;;;;;;10.49;100.00;101377.97;6005915;23;20027;-71
2022/10/08 06:18:38;;;;;;;5.38;5.00;;;;;;;10.45;100.00;101365.88;5993414;23;20091;-70
2022/10/08 06:21:10;;;;;;;4.70;4.47;;;;;;;10.62;100.00;101373.03;6002518;23;20019;-70
2022/10/08 06:23:44;;;;;;;5.75;5.35;;;;;;;10.66;100.00;101379.88;6006979;23;20031;-70
2022/10/08 06:26:10;;;;;;;8.25;4.50;;;;;;;10.49;100.00;101350.88;5995510;23;20188;-70
2022/10/08 06:28:37;;;;;;;5.20;4.80;;;;;;;10.77;100.00;101387.31;5995785;23;20495;-70
2022/10/08 06:31:06;;;;;;;4.78;4.55;;;;;;;10.36;100.00;101319.00;5994079;23;20047;-70
2022/10/08 06:33:33;;;;;;;5.32;5.10;;;;;;;10.54;100.00;101352.41;5960945;23;20028;-70
2022/10/08 06:36:20;;;;;;;4.90;4.60;;;;;;;10.81;100.00;101388.06;5979677;23;20663;-70
2022/10/08 06:38:58;;;;;;;6.28;5.75;;;;;;;10.86;100.00;101393.94;5974300;23;20028;-70
2022/10/08 06:41:25;;;;;;;6.55;6.05;;;;;;;10.68;100.00;101367.53;5970089;23;20087;-70
2022/10/08 06:43:52;;;;;;;6.70;6.10;;;;;;;10.67;100.00;101346.63;5976337;23;20016;-70
2022/10/08 06:46:18;;;;;;;5.45;5.13;;;;;;;11.03;100.00;101399.34;5975512;23;20424;-70
2022/10/08 06:48:46;;;;;;;5.47;5.13;;;;;;;11.15;100.00;101403.22;5979246;23;20028;-70
2022/10/08 06:51:15;;;;;;;5.95;5.55;;;;;;;10.80;100.00;101349.56;5975259;23;20078;-70
2022/10/08 06:53:43;;;;;;;9.88;5.65;;;;;;;10.08;100.00;101244.09;5971778;23;20215;-70
2022/10/08 06:56:16;;;;;;;6.03;5.63;;;;;;;10.87;100.00;101366.78;5952073;24;20024;-70
2022/10/08 06:58:43;;;;;;;5.97;5.53;;;;;;;11.50;100.00;101425.31;5976647;23;20023;-69
2022/10/08 07:01:13;;;;;;;6.28;5.68;;;;;;;11.74;100.00;101433.03;5972676;24;20440;-69
2022/10/08 07:03:39;;;;;;;6.40;5.95;;;;;;;11.95;100.00;101439.13;5943560;24;20043;-69
2022/10/08 07:06:09;;;;;;;6.53;5.97;;;;;;;12.05;100.00;101435.16;5976842;23;20019;-70
2022/10/08 07:08:36;;;;;;;7.40;6.72;;;;;;;11.99;100.00;101438.06;5973497;23;21365;-70
2022/10/08 07:11:06;;;;;;;7.13;6.43;;;;;;;11.96;100.00;101443.44;5975442;23;20113;-70
2022/10/08 07:13:33;;;;;;;6.78;6.28;;;;;;;11.67;100.00;101402.69;5946036;23;20028;-70
2022/10/08 07:16:14;;;;;;;6.50;5.90;;;;;;;11.89;100.00;101449.94;5944585;24;20028;-70
2022/10/08 07:18:47;;;;;;;5.78;5.47;;;;;;;11.64;100.00;101408.06;5982287;23;20074;-71
2022/10/08 07:21:16;;;;;;;6.65;6.15;;;;;;;11.28;100.00;101338.69;5947259;23;20043;-71
2022/10/08 07:23:42;;;;;;;6.65;6.05;;;;;;;11.84;100.00;101425.56;5941150;24;20533;-71
2022/10/08 07:26:17;;;;;;;8.10;6.35;;;;;;;12.17;100.00;101475.81;5971316;23;20043;-70
2022/10/08 07:28:53;;;;;;;6.32;5.93;;;;;;;12.20;100.00;101473.03;5972867;23;20032;-71
2022/10/08 07:31:23;;;;;;;6.30;5.80;;;;;;;11.30;100.00;101341.25;5967896;23;20113;-70
2022/10/08 07:33:49;;;;;;;7.45;6.85;;;;;;;11.72;100.00;101427.81;5928866;24;20032;-70
2022/10/08 07:36:18;;;;;;;6.32;5.72;;;;;;;12.09;100.00;101499.00;5965238;24;20015;-70
2022/10/08 07:38:47;;;;;;;6.70;6.20;;;;;;;12.11;100.00;101490.09;5971473;23;20096;-70
2022/10/08 07:41:14;;;;;;;7.22;6.63;;;;;;;12.23;100.00;101498.34;5957445;24;20345;-70
2022/10/08 07:43:40;;;;;;;7.88;7.13;;;;;;;11.88;100.00;101450.81;5946530;23;20028;-70
2022/10/08 07:46:08;;;;;;;14.32;6.72;;;;;;;12.27;100.00;101478.88;5965222;24;20087;-70
2022/10/08 07:48:36;;;;;;;7.18;6.57;;;;;;;12.37;100.00;101501.22;5969655;23;20028;-70
2022/10/08 07:51:13;;;;;;;7.07;6.30;;;;;;;12.38;100.00;101503.75;5961958;23;20024;-70
2022/10/08 07:53:39;;;;;;;8.15;7.38;;;;;;;12.46;100.00;101507.81;5972675;23;20067;-71
2022/10/08 07:56:07;;;;;;;7.03;6.43;;;;;;;12.15;100.00;101446.09;5966720;23;20115;-70
2022/10/08 07:58:34;;;;;;;13.82;7.85;;;;;;;12.20;100.00;101443.25;5966524;23;20078;-70
2022/10/08 08:01:02;;;;;;;6.40;5.95;;;;;;;12.70;100.00;101508.44;5931922;24;20127;-70
2022/10/08 08:03:29;;;;;;;8.57;6.63;;;;;;;12.89;100.00;101513.63;5946299;23;20062;-71
2022/10/08 08:06:08;;;;;;;10.07;7.07;;;;;;;12.88;100.00;101464.53;5968055;24;20085;-70
2022/10/08 08:08:36;;;;;;;7.40;6.82;;;;;;;13.07;100.00;101481.13;5970252;23;20089;-70
2022/10/08 08:11:04;;;;;;;7.55;6.75;;;;;;;13.29;100.00;101519.56;5963448;23;20509;-70
2022/10/08 08:13:33;;;;;;;6.85;6.15;;;;;;;12.96;100.00;101472.91;5967929;23;20036;-71
2022/10/08 08:16:05;;;;;;;7.40;6.90;;;;;;;12.80;100.00;101437.72;5950891;23;20034;-71
2022/10/08 08:18:34;;;;;;;7.53;6.93;;;;;;;13.27;100.00;101532.84;5962043;23;20038;-70
2022/10/08 08:21:06;;;;;;;7.30;6.60;;;;;;;12.92;100.00;101480.09;5967177;24;20089;-70
2022/10/08 08:23:35;;;;;;;9.23;6.55;;;;;;;12.86;100.00;101455.84;5966269;23;20120;-70
2022/10/08 08:26:04;;;;;;;6.82;6.15;;;;;;;13.32;100.00;101522.94;5956227;24;20082;-70
2022/10/08 08:28:30;;;;;;;10.63;7.75;;;;;;;12.72;100.00;101396.81;5974637;23;20066;-70
2022/10/08 08:31:07;;;;;;;11.77;6.70;;;;;;;13.59;100.00;101534.78;5964566;24;20522;-70
2022/10/08 08:33:34;;;;;;;8.25;6.60;;;;;;;12.77;100.00;101418.50;5972110;23;20471;-70
2022/10/08 08:36:00;;;;;;;8.57;6.78;;;;;;;13.35;100.00;101492.97;5915648;24;20099;-70
2022/10/08 08:38:27;;;;;;;6.38;5.78;;;;;;;13.87;100.00;101555.31;5968382;23;20478;-70
2022/10/08 08:40:56;;;;;;;9.05;5.55;;;;;;;13.72;100.00;101526.19;5967224;23;20545;-70
2022/10/08 08:43:23;;;;;;;6.63;5.93;;;;;;;13.69;100.00;101507.88;5950838;23;20060;-70
2022/10/08 08:45:50;;;;;;;6.95;6.30;;;;;;;13.93;100.00;101536.53;5974327;23;20007;-70
2022/10/08 08:48:22;;;;;;;7.00;6.35;;;;;;;14.18;100.00;101570.41;5973567;23;20513;-70
2022/10/08 08:50:52;;;;;;;8.15;6.00;;;;;;;13.40;100.00;101426.81;5972038;23;20015;-70
2022/10/08 08:53:18;;;;;;;6.07;5.57;;;;;;;14.01;100.00;101533.50;5970702;23;20031;-70
2022/10/08 08:55:47;;;;;;;12.98;6.70;;;;;;;14.18;100.00;101559.84;5966747;23;20034;-70
2022/10/08 08:58:27;;;;;;;6.63;6.05;;;;;;;14.50;100.00;101591.59;5971800;23;20068;-70
2022/10/08 09:00:59;;;;;;;5.72;5.35;;;;;;;14.75;100.00;101581.41;5969578;24;20024;-70
2022/10/08 09:03:32;;;;;;;8.60;6.05;;;;;;;14.44;100.00;101531.19;5973975;23;20020;-69
2022/10/08 09:06:04;;;;;;;9.10;5.68;;;;;;;14.68;100.00;101582.69;5964167;23;20036;-70
2022/10/08 09:08:36;;;;;;;7.00;6.35;;;;;;;14.59;100.00;101564.69;5974628;23;20024;-70
2022/10/08 09:11:04;;;;;;;6.60;6.03;;;;;;;14.76;100.00;101596.31;5948283;24;20027;-70
2022/10/08 09:13:36;;;;;;;6.75;6.22;;;;;;;14.56;100.00;101535.81;5971694;23;20032;-71
2022/10/08 09:16:03;;;;;;;8.27;6.07;;;;;;;14.56;100.00;101549.03;5968056;23;20020;-70
2022/10/08 09:18:30;;;;;;;10.95;6.15;;;;;;;14.76;100.00;101596.31;5974036;23;20028;-70
2022/10/08 09:20:56;;;;;;;6.15;5.75;;;;;;;14.81;100.00;101574.06;5973856;23;20672;-70
2022/10/08 09:23:25;;;;;;;17.20;7.03;;;;;;;15.11;100.00;101609.38;5941073;24;20030;-70
2022/10/08 09:26:02;;;;;;;5.85;5.55;;;;;;;15.19;100.00;101600.13;5965793;23;20462;-70
2022/10/08 09:28:49;;;;;;;6.47;5.97;;;;;;;14.20;100.00;101444.47;5941300;24;20086;-70
2022/10/08 09:31:29;;;;;;;6.35;5.90;;;;;;;15.20;100.00;101572.75;5963409;23;20043;-70
2022/10/08 09:34:00;;;;;;;5.78;5.38;;;;;;;15.87;98.23;101616.44;5972144;23;20093;-70
2022/10/08 09:36:40;;;;;;;10.93;6.13;;;;;;;15.91;94.99;101598.56;5993827;23;20030;-70
2022/10/08 09:39:22;;;;;;;6.60;5.97;;;;;;;16.13;95.17;101616.66;6008206;23;20038;-71
2022/10/08 09:42:06;;;;;;;6.75;6.22;;;;;;;16.31;95.65;101623.47;5999889;23;20023;-70
2022/10/08 09:44:40;;;;;;;6.20;5.70;;;;;;;16.07;92.95;101614.38;6002036;23;20449;-71
2022/10/08 09:47:15;;;;;;;8.18;6.00;;;;;;;15.97;93.82;101615.88;5990192;23;20015;-70
2022/10/08 09:49:43;;;;;;;6.32;5.82;;;;;;;15.64;94.59;101580.72;6001834;23;20039;-70
2022/10/08 09:52:12;;;;;;;6.72;5.38;;;;;;;15.96;94.74;101625.63;5995713;23;20085;-70
2022/10/08 09:54:50;;;;;;;6.07;5.68;;;;;;;15.15;93.94;101528.94;5973718;23;20011;-70
2022/10/08 09:57:20;;;;;;;5.63;5.32;;;;;;;15.61;92.25;101643.56;5969162;23;20094;-70
2022/10/08 09:59:56;;;;;;;6.25;5.75;;;;;;;15.69;93.19;101654.53;5975713;23;20019;-69
2022/10/08 10:02:52;;;;;;;5.78;5.47;;;;;;;15.49;93.62;101653.06;5996764;23;20031;-70
2022/10/08 10:05:23;;;;;;;6.30;5.68;;;;;;;15.36;96.03;101635.25;5998564;23;20085;-70
2022/10/08 10:07:50;;;;;;;6.00;5.50;;;;;;;15.33;95.40;101595.75;5997146;23;20517;-70
2022/10/08 10:10:26;;;;;;;6.32;5.82;;;;;;;15.93;93.28;101657.56;5997656;23;20055;-70
2022/10/08 10:13:03;;;;;;;6.07;5.68;;;;;;;16.04;89.32;101635.75;5987666;23;20047;-71
2022/10/08 10:15:42;;;;;;;9.35;6.85;;;;;;;16.53;88.58;101660.09;6000351;23;20120;-70
2022/10/08 10:18:15;;;;;;;6.60;6.00;;;;;;;16.96;87.27;101661.91;5996137;23;20031;-70
2022/10/08 10:20:49;;;;;;;6.10;5.60;;;;;;;17.32;84.68;101655.16;5996783;23;20542;-70
2022/10/08 10:23:33;;;;;;;5.65;5.22;;;;;;;17.53;81.24;101659.03;5970071;23;20028;-70
2022/10/08 10:26:09;;;;;;;6.10;5.60;;;;;;;17.46;76.75;101647.16;6001347;23;20086;-69
2022/10/08 10:28:49;;;;;;;5.65;5.25;;;;;;;17.47;76.80;101640.03;5994583;23;20047;-69
2022/10/08 10:31:29;;;;;;;6.13;5.60;;;;;;;17.06;74.40;101609.97;5995221;23;20031;-69
2022/10/08 10:34:14;;;;;;;5.53;5.22;;;;;;;16.59;73.40;101523.69;5963593;23;20024;-69
2022/10/08 10:37:07;;;;;;;6.13;5.13;;;;;;;17.80;73.99;101663.47;5987761;23;20039;-69
2022/10/08 10:39:50;;;;;;;5.88;5.43;;;;;;;17.46;71.79;101611.78;5991807;23;20037;-69
2022/10/08 10:42:28;;;;;;;5.60;5.30;;;;;;;17.61;72.98;101650.56;5993083;23;20071;-69
2022/10/08 10:45:17;;;;;;;5.45;5.22;;;;;;;17.72;72.50;101633.91;5991209;23;20031;-70
2022/10/08 10:47:43;;;;;;;6.07;5.68;;;;;;;17.79;72.68;101637.88;5963765;23;20051;-70
2022/10/08 10:50:22;;;;;;;5.63;5.32;;;;;;;17.64;71.06;101615.00;6000432;23;20511;-69
2022/10/08 10:53:33;;;;;;;5.50;5.20;;;;;;;17.40;70.41;101655.50;5976526;23;20024;-69
2022/10/08 10:56:16;;;;;;;5.30;5.03;;;;;;;16.90;74.33;101664.94;5874942;24;20057;-69
2022/10/08 10:59:07;;;;;;;5.82;5.53;;;;;;;17.26;73.18;101682.94;5886008;24;20088;-69
2022/10/08 11:01:57;;;;;;;5.57;5.28;;;;;;;16.83;73.84;101642.41;5965428;23;20035;-69
2022/10/08 11:04:42;;;;;;;6.03;5.45;;;;;;;17.06;75.97;101683.34;5996486;23;20527;-69
2022/10/08 11:07:29;;;;;;;5.70;5.35;;;;;;;17.04;76.18;101669.34;5998030;23;20577;-70
2022/10/08 11:10:01;;;;;;;7.40;6.95;;;;;;;17.64;75.83;101690.19;5911148;23;20106;-70
2022/10/08 11:13:00;;;;;;;5.90;5.60;;;;;;;17.61;76.29;101682.44;5966355;23;20048;-70
2022/10/08 11:15:35;;;;;;;6.82;5.70;;;;;;;17.34;73.98;101656.75;5993703;23;20656;-71
2022/10/08 11:18:33;;;;;;;5.80;5.50;;;;;;;17.71;74.24;101695.94;5980112;23;20055;-70
2022/10/08 11:21:08;;;;;;;5.75;5.45;;;;;;;17.93;73.99;101696.22;5975448;23;20623;-70
2022/10/08 11:23:53;;;;;;;11.57;5.68;;;;;;;18.23;72.14;101697.75;5986801;23;20121;-70
2022/10/08 11:26:31;;;;;;;5.60;5.22;;;;;;;18.10;70.18;101667.66;5989914;23;20049;-71
2022/10/08 11:29:14;;;;;;;5.10;4.90;;;;;;;17.53;64.14;101692.69;5999486;23;20031;-70
2022/10/08 11:31:45;;;;;;;5.38;5.15;;;;;;;16.71;65.31;101697.84;5964913;23;20309;-71
2022/10/08 11:34:21;;;;;;;5.25;4.85;;;;;;;16.12;67.23;101662.63;5993909;23;20122;-70
2022/10/08 11:36:59;;;;;;;5.32;5.03;;;;;;;16.04;69.43;101720.50;5957531;24;20028;-70
2022/10/08 11:39:43;;;;;;;10.75;5.55;;;;;;;15.96;71.42;101728.88;5996393;23;20030;-70
2022/10/08 11:42:25;;;;;;;5.68;5.18;;;;;;;15.91;71.11;101721.19;5963294;23;20101;-70
2022/10/08 11:44:52;;;;;;;4.70;4.50;;;;;;;15.80;69.81;101705.09;5995758;23;20031;-69